createdAt,value
2018-07-20T00:00:55.399Z,82
2018-07-20T00:01:57.400Z,81
2018-07-20T00:02:59.403Z,82
2018-07-20T00:04:01.726Z,82
2018-07-20T00:05:03.724Z,82
2018-07-20T00:06:06.031Z,82
2018-07-20T00:07:08.016Z,82
2018-07-20T00:08:10.883Z,82
2018-07-20T00:09:12.837Z,82
2018-07-20T00:10:14.819Z,82
2018-07-20T00:11:17.102Z,82
2018-07-20T00:12:19.094Z,82
2018-07-20T00:13:21.099Z,82
2018-07-20T00:14:23.083Z,82
2018-07-20T00:15:25.084Z,82
2018-07-20T00:16:27.082Z,82
2018-07-20T00:17:29.071Z,83
2018-07-20T00:18:31.075Z,82
2018-07-20T00:19:33.064Z,83
2018-07-20T00:20:35.053Z,83
2018-07-20T00:21:37.608Z,83
2018-07-20T00:22:39.608Z,83
2018-07-20T00:23:41.597Z,83
2018-07-20T00:24:43.594Z,83
2018-07-20T00:25:45.871Z,83
2018-07-20T00:26:47.854Z,83
2018-07-20T00:27:49.854Z,83
2018-07-20T00:28:51.853Z,83
2018-07-20T00:29:53.838Z,83
2018-07-20T00:30:55.836Z,83
2018-07-20T00:31:57.838Z,83
2018-07-20T00:32:59.830Z,83
2018-07-20T00:34:01.833Z,84
2018-07-20T00:35:04.552Z,84
2018-07-20T00:36:06.537Z,84
2018-07-20T00:37:08.912Z,84
2018-07-20T00:38:10.918Z,84
2018-07-20T00:39:12.906Z,84
2018-07-20T00:40:15.192Z,84
2018-07-20T00:41:17.182Z,84
2018-07-20T00:42:19.169Z,84
2018-07-20T00:43:21.176Z,84
2018-07-20T00:44:23.169Z,85
2018-07-20T00:45:25.444Z,85
2018-07-20T00:46:27.426Z,85
2018-07-20T00:47:29.426Z,85
2018-07-20T00:48:31.425Z,85
2018-07-20T00:49:33.423Z,85
2018-07-20T00:50:35.414Z,85
2018-07-20T00:51:37.417Z,85
2018-07-20T00:52:39.404Z,85
2018-07-20T00:53:41.392Z,85
2018-07-20T00:54:43.385Z,85
2018-07-20T00:55:45.387Z,85
2018-07-20T00:56:47.377Z,85
2018-07-20T00:57:49.373Z,85
2018-07-20T00:58:51.368Z,85
2018-07-20T00:59:53.349Z,85
2018-07-20T01:00:55.626Z,86
2018-07-20T01:01:57.629Z,86
2018-07-20T01:02:59.890Z,86
2018-07-20T01:04:01.893Z,86
2018-07-20T01:05:03.891Z,86
2018-07-20T01:06:05.885Z,86
2018-07-20T01:07:07.884Z,86
2018-07-20T01:08:10.152Z,85
2018-07-20T01:09:12.139Z,85
2018-07-20T01:10:14.126Z,85
2018-07-20T01:11:16.133Z,86
2018-07-20T01:12:18.115Z,86
2018-07-20T01:13:20.116Z,86
2018-07-20T01:14:22.493Z,86
2018-07-20T01:15:24.480Z,86
2018-07-20T01:16:26.481Z,86
2018-07-20T01:17:28.468Z,86
2018-07-20T01:18:30.465Z,86
2018-07-20T01:19:32.448Z,86
2018-07-20T01:20:34.744Z,86
2018-07-20T01:21:36.731Z,86
2018-07-20T01:22:39.000Z,85
2018-07-20T01:23:41.276Z,85
2018-07-20T01:24:43.261Z,85
2018-07-20T01:25:45.247Z,85
2018-07-20T01:26:47.233Z,86
2018-07-20T01:27:49.219Z,86
2018-07-20T01:28:51.226Z,86
2018-07-20T01:29:53.215Z,86
2018-07-20T01:30:55.207Z,86
2018-07-20T01:31:57.204Z,86
2018-07-20T01:32:59.187Z,86
2018-07-20T01:34:01.187Z,86
2018-07-20T01:35:03.189Z,86
2018-07-20T01:36:05.172Z,86
2018-07-20T01:37:07.169Z,86
2018-07-20T01:38:09.554Z,86
2018-07-20T01:39:11.545Z,86
2018-07-20T01:40:13.552Z,86
2018-07-20T01:41:15.536Z,86
2018-07-20T01:42:17.823Z,86
2018-07-20T01:43:19.808Z,86
2018-07-20T01:44:21.810Z,86
2018-07-20T01:45:24.073Z,87
2018-07-20T01:46:26.075Z,87
2018-07-20T01:47:28.069Z,87
2018-07-20T01:48:30.058Z,87
2018-07-20T01:49:32.340Z,87
2018-07-20T01:50:34.626Z,87
2018-07-20T01:51:36.624Z,87
2018-07-20T01:52:38.607Z,87
2018-07-20T01:53:40.611Z,87
2018-07-20T01:54:42.597Z,87
2018-07-20T01:55:44.586Z,87
2018-07-20T01:56:46.581Z,87
2018-07-20T01:57:48.565Z,87
2018-07-20T01:58:50.563Z,87
2018-07-20T01:59:52.562Z,87
2018-07-20T02:00:54.559Z,87
2018-07-20T02:01:56.829Z,87
2018-07-20T02:02:58.819Z,87
2018-07-20T02:04:00.809Z,87
2018-07-20T02:05:02.807Z,87
2018-07-20T02:06:04.791Z,87
2018-07-20T02:07:07.067Z,87
2018-07-20T02:08:09.349Z,87
2018-07-20T02:09:11.622Z,87
2018-07-20T02:10:13.921Z,88
2018-07-20T02:11:15.917Z,88
2018-07-20T02:12:17.913Z,88
2018-07-20T02:13:19.910Z,88
2018-07-20T02:14:21.897Z,88
2018-07-20T02:15:23.884Z,88
2018-07-20T02:16:25.869Z,88
2018-07-20T02:17:27.871Z,88
2018-07-20T02:18:30.411Z,88
2018-07-20T02:19:32.693Z,88
2018-07-20T02:20:35.076Z,88
2018-07-20T02:21:37.065Z,88
2018-07-20T02:22:39.069Z,88
2018-07-20T02:23:41.442Z,88
2018-07-20T02:24:44.021Z,88
2018-07-20T02:25:46.287Z,88
2018-07-20T02:26:48.291Z,88
2018-07-20T02:27:50.281Z,88
2018-07-20T02:28:52.546Z,89
2018-07-20T02:29:54.543Z,89
2018-07-20T02:30:56.914Z,89
2018-07-20T02:31:59.217Z,89
2018-07-20T02:33:01.222Z,89
2018-07-20T02:34:03.500Z,89
2018-07-20T02:35:05.485Z,89
2018-07-20T02:36:07.482Z,89
2018-07-20T02:37:09.479Z,89
2018-07-20T02:38:11.478Z,89
2018-07-20T02:39:13.483Z,89
2018-07-20T02:40:15.474Z,89
2018-07-20T02:41:17.470Z,89
2018-07-20T02:42:20.035Z,89
2018-07-20T02:43:22.409Z,89
2018-07-20T02:44:24.786Z,89
2018-07-20T02:45:27.078Z,90
2018-07-20T02:46:29.071Z,90
2018-07-20T02:47:31.070Z,90
2018-07-20T02:48:33.070Z,90
2018-07-20T02:49:35.070Z,90
2018-07-20T02:50:37.055Z,90
2018-07-20T02:51:39.638Z,90
2018-07-20T02:52:41.908Z,90
2018-07-20T02:53:43.905Z,90
2018-07-20T02:54:45.905Z,90
2018-07-20T02:55:48.177Z,90
2018-07-20T02:56:50.177Z,90
2018-07-20T02:57:52.742Z,90
2018-07-20T02:58:54.749Z,90
2018-07-20T02:59:57.116Z,90
2018-07-20T03:00:59.503Z,90
2018-07-20T03:02:02.165Z,90
2018-07-20T03:03:04.543Z,90
2018-07-20T03:04:07.112Z,90
2018-07-20T03:05:09.405Z,90
2018-07-20T03:06:11.367Z,90
2018-07-20T03:07:13.361Z,90
2018-07-20T03:08:15.970Z,90
2018-07-20T03:09:17.963Z,90
2018-07-20T03:10:19.959Z,90
2018-07-20T03:11:22.230Z,91
2018-07-20T03:12:24.215Z,91
2018-07-20T03:13:26.505Z,91
2018-07-20T03:14:28.784Z,91
2018-07-20T03:15:31.045Z,91
2018-07-20T03:16:33.323Z,91
2018-07-20T03:17:35.322Z,91
2018-07-20T03:18:37.321Z,91
2018-07-20T03:19:39.589Z,91
2018-07-20T03:20:41.590Z,91
2018-07-20T03:21:43.590Z,90
2018-07-20T03:22:45.588Z,90
2018-07-20T03:23:47.568Z,91
2018-07-20T03:24:49.570Z,91
2018-07-20T03:25:51.557Z,90
2018-07-20T03:26:53.549Z,91
2018-07-20T03:27:55.828Z,90
2018-07-20T03:28:58.109Z,90
2018-07-20T03:30:00.110Z,90
2018-07-20T03:31:02.379Z,90
2018-07-20T03:32:04.962Z,90
2018-07-20T03:33:07.340Z,90
2018-07-20T03:34:10.321Z,90
2018-07-20T03:35:12.704Z,90
2018-07-20T03:36:14.969Z,90
2018-07-20T03:37:16.972Z,90
2018-07-20T03:38:18.960Z,90
2018-07-20T03:39:21.235Z,90
2018-07-20T03:40:23.218Z,90
2018-07-20T03:41:25.217Z,90
2018-07-20T03:42:27.481Z,90
2018-07-20T03:43:29.475Z,90
2018-07-20T03:44:31.468Z,90
2018-07-20T03:45:33.450Z,90
2018-07-20T03:46:35.446Z,90
2018-07-20T03:47:37.443Z,90
2018-07-20T03:48:39.425Z,90
2018-07-20T03:49:41.422Z,90
2018-07-20T03:50:43.422Z,90
2018-07-20T03:51:45.420Z,90
2018-07-20T03:52:48.080Z,90
2018-07-20T03:53:50.067Z,90
2018-07-20T03:54:52.056Z,90
2018-07-20T03:55:54.337Z,90
2018-07-20T03:56:56.614Z,90
2018-07-20T03:57:58.616Z,90
2018-07-20T03:59:00.885Z,90
2018-07-20T04:00:03.161Z,90
2018-07-20T04:01:05.643Z,90
2018-07-20T04:02:07.624Z,90
2018-07-20T04:03:09.903Z,90
2018-07-20T04:04:12.556Z,90
2018-07-20T04:05:14.559Z,90
2018-07-20T04:06:16.530Z,90
2018-07-20T04:07:18.526Z,90
2018-07-20T04:08:20.521Z,90
2018-07-20T04:09:22.510Z,90
2018-07-20T04:10:24.514Z,89
2018-07-20T04:11:26.784Z,89
2018-07-20T04:12:29.078Z,90
2018-07-20T04:13:31.066Z,89
2018-07-20T04:14:33.072Z,89
2018-07-20T04:15:35.059Z,89
2018-07-20T04:16:37.051Z,89
2018-07-20T04:17:39.051Z,89
2018-07-20T04:18:41.037Z,89
2018-07-20T04:19:43.032Z,89
2018-07-20T04:20:45.312Z,89
2018-07-20T04:21:47.294Z,89
2018-07-20T04:22:49.291Z,89
2018-07-20T04:23:51.571Z,89
2018-07-20T04:24:53.566Z,89
2018-07-20T04:25:55.564Z,89
2018-07-20T04:26:57.940Z,89
2018-07-20T04:27:59.932Z,89
2018-07-20T04:29:02.199Z,89
2018-07-20T04:30:04.609Z,89
2018-07-20T04:31:06.977Z,89
2018-07-20T04:32:08.980Z,88
2018-07-20T04:33:11.351Z,88
2018-07-20T04:34:13.347Z,88
2018-07-20T04:35:15.329Z,88
2018-07-20T04:36:17.351Z,88
2018-07-20T04:37:19.321Z,88
2018-07-20T04:38:21.325Z,88
2018-07-20T04:39:23.309Z,88
2018-07-20T04:40:25.694Z,89
2018-07-20T04:41:28.255Z,89
2018-07-20T04:42:30.246Z,88
2018-07-20T04:43:32.251Z,88
2018-07-20T04:44:34.238Z,87
2018-07-20T04:45:36.616Z,87
2018-07-20T04:46:38.604Z,87
2018-07-20T04:47:40.610Z,87
2018-07-20T04:48:42.599Z,87
2018-07-20T04:49:44.596Z,86
2018-07-20T04:50:46.598Z,86
2018-07-20T04:51:48.585Z,86
2018-07-20T04:52:50.587Z,87
2018-07-20T04:53:52.866Z,87
2018-07-20T04:54:55.235Z,86
2018-07-20T04:55:57.619Z,86
2018-07-20T04:56:59.615Z,87
2018-07-20T04:58:01.947Z,86
2018-07-20T04:59:04.231Z,86
2018-07-20T05:00:06.219Z,86
2018-07-20T05:01:08.211Z,86
2018-07-20T05:02:10.200Z,86
2018-07-20T05:03:12.206Z,86
2018-07-20T05:04:14.191Z,86
2018-07-20T05:05:16.191Z,87
2018-07-20T05:06:18.194Z,86
2018-07-20T05:07:20.466Z,86
2018-07-20T05:08:22.467Z,86
2018-07-20T05:09:24.737Z,86
2018-07-20T05:10:26.740Z,87
2018-07-20T05:11:28.736Z,86
2018-07-20T05:12:30.732Z,86
2018-07-20T05:13:32.721Z,86
2018-07-20T05:14:34.710Z,86
2018-07-20T05:15:36.709Z,86
2018-07-20T05:16:38.974Z,86
2018-07-20T05:17:41.357Z,86
2018-07-20T05:18:43.352Z,86
2018-07-20T05:19:45.351Z,85
2018-07-20T05:20:47.614Z,85
2018-07-20T05:21:49.612Z,85
2018-07-20T05:22:51.993Z,85
2018-07-20T05:23:53.977Z,85
2018-07-20T05:24:56.644Z,85
2018-07-20T05:25:58.634Z,85
2018-07-20T05:27:00.629Z,85
2018-07-20T05:28:03.018Z,85
2018-07-20T05:29:05.010Z,85
2018-07-20T05:30:07.004Z,85
2018-07-20T05:31:09.001Z,85
2018-07-20T05:32:10.996Z,85
2018-07-20T05:33:13.278Z,85
2018-07-20T05:34:15.284Z,85
2018-07-20T05:35:17.282Z,85
2018-07-20T05:36:19.269Z,85
2018-07-20T05:37:21.276Z,85
2018-07-20T05:38:23.549Z,85
2018-07-20T05:39:25.844Z,85
2018-07-20T05:40:27.848Z,84
2018-07-20T05:41:29.837Z,84
2018-07-20T05:42:32.124Z,84
2018-07-20T05:43:34.500Z,84
2018-07-20T05:44:36.788Z,83
2018-07-20T05:45:39.057Z,84
2018-07-20T05:46:41.442Z,84
2018-07-20T05:47:43.440Z,84
2018-07-20T05:48:45.430Z,84
2018-07-20T05:49:47.433Z,83
2018-07-20T05:50:49.723Z,83
2018-07-20T05:51:52.391Z,84
2018-07-20T05:52:54.395Z,84
2018-07-20T05:53:56.680Z,84
2018-07-20T05:54:58.681Z,84
2018-07-20T05:56:00.975Z,84
2018-07-20T05:57:02.966Z,83
2018-07-20T05:58:04.976Z,83
2018-07-20T05:59:07.253Z,83
2018-07-20T06:00:09.247Z,83
2018-07-20T06:01:11.535Z,83
2018-07-20T06:02:13.528Z,83
2018-07-20T06:03:15.522Z,83
2018-07-20T06:04:17.515Z,82
2018-07-20T06:05:19.508Z,82
2018-07-20T06:06:21.809Z,81
2018-07-20T06:07:23.815Z,81
2018-07-20T06:08:25.818Z,81
2018-07-20T06:09:27.805Z,81
2018-07-20T06:10:29.821Z,80
2018-07-20T06:11:31.812Z,81
2018-07-20T06:12:34.192Z,82
2018-07-20T06:13:36.580Z,81
2018-07-20T06:14:38.566Z,81
2018-07-20T06:15:40.569Z,81
2018-07-20T06:16:42.947Z,81
2018-07-20T06:17:44.962Z,80
2018-07-20T06:18:46.950Z,79
2018-07-20T06:19:49.035Z,80
2018-07-20T06:20:50.961Z,81
2018-07-20T06:21:52.959Z,79
2018-07-20T06:22:55.556Z,78
2018-07-20T06:23:57.655Z,80
2018-07-20T06:24:59.550Z,80
2018-07-20T06:26:01.930Z,79
2018-07-20T06:27:03.938Z,79
2018-07-20T06:28:05.931Z,79
2018-07-20T06:29:08.317Z,78
2018-07-20T06:30:10.311Z,77
2018-07-20T06:31:12.318Z,78
2018-07-20T06:32:14.592Z,77
2018-07-20T06:33:16.867Z,78
2018-07-20T06:34:18.881Z,78
2018-07-20T06:35:20.876Z,76
2018-07-20T06:36:22.872Z,77
2018-07-20T06:37:24.873Z,77
2018-07-20T06:38:27.151Z,77
2018-07-20T06:39:29.158Z,77
2018-07-20T06:40:31.163Z,77
2018-07-20T06:41:33.166Z,76
2018-07-20T06:42:35.154Z,76
2018-07-20T06:43:37.167Z,76
2018-07-20T06:44:39.443Z,76
2018-07-20T06:45:41.442Z,77
2018-07-20T06:46:43.448Z,77
2018-07-20T06:47:45.441Z,77
2018-07-20T06:48:47.443Z,76
2018-07-20T06:49:49.895Z,74
2018-07-20T06:50:52.136Z,73
2018-07-20T06:51:54.125Z,74
2018-07-20T06:52:56.131Z,74
2018-07-20T06:53:58.139Z,74
2018-07-20T06:55:00.134Z,74
2018-07-20T06:56:02.531Z,74
2018-07-20T06:57:04.525Z,73
2018-07-20T06:58:06.821Z,74
2018-07-20T06:59:09.200Z,74
2018-07-20T07:00:11.208Z,73
2018-07-20T07:01:13.201Z,73
2018-07-20T07:02:15.206Z,72
2018-07-20T07:03:17.211Z,72
2018-07-20T07:04:19.201Z,72
2018-07-20T07:05:21.209Z,71
2018-07-20T07:06:23.207Z,71
2018-07-20T07:07:25.502Z,72
2018-07-20T07:08:27.498Z,71
2018-07-20T07:09:30.047Z,71
2018-07-20T07:10:32.385Z,70
2018-07-20T07:11:34.380Z,71
2018-07-20T07:12:36.385Z,71
2018-07-20T07:13:38.393Z,69
2018-07-20T07:14:40.401Z,68
2018-07-20T07:15:42.395Z,69
2018-07-20T07:16:44.399Z,68
2018-07-20T07:17:46.401Z,68
2018-07-20T07:18:48.401Z,68
2018-07-20T07:19:50.408Z,67
2018-07-20T07:20:52.402Z,66
2018-07-20T07:21:54.408Z,66
2018-07-20T07:22:56.407Z,67
2018-07-20T07:23:58.418Z,67
2018-07-20T07:25:00.409Z,66
2018-07-20T07:26:03.003Z,66
2018-07-20T07:27:04.837Z,65
2018-07-20T07:28:06.838Z,64
2018-07-20T07:29:08.858Z,65
2018-07-20T07:30:10.849Z,64
2018-07-20T07:31:13.509Z,65
2018-07-20T07:32:15.506Z,65
2018-07-20T07:33:17.906Z,66
2018-07-20T07:34:20.185Z,66
2018-07-20T07:35:22.192Z,66
2018-07-20T07:36:24.198Z,66
2018-07-20T07:37:26.188Z,62
2018-07-20T07:38:28.480Z,62
2018-07-20T07:39:30.490Z,61
2018-07-20T07:40:32.482Z,60
2018-07-20T07:41:34.490Z,61
2018-07-20T07:42:36.497Z,61
2018-07-20T07:43:38.500Z,61
2018-07-20T07:44:40.508Z,61
2018-07-20T07:45:42.509Z,60
2018-07-20T07:46:44.889Z,59
2018-07-20T07:47:46.884Z,60
2018-07-20T07:48:48.901Z,62
2018-07-20T07:49:50.893Z,61
2018-07-20T07:50:53.292Z,60
2018-07-20T07:51:55.291Z,61
2018-07-20T07:52:57.289Z,58
2018-07-20T07:53:59.304Z,59
2018-07-20T07:55:01.971Z,58
2018-07-20T07:56:04.283Z,59
2018-07-20T07:57:06.279Z,55
2018-07-20T07:58:08.289Z,54
2018-07-20T07:59:10.287Z,55
2018-07-20T08:00:12.284Z,55
2018-07-20T08:01:14.294Z,55
2018-07-20T08:02:16.568Z,55
2018-07-20T08:03:18.578Z,57
2018-07-20T08:04:20.589Z,58
2018-07-20T08:05:22.601Z,57
2018-07-20T08:06:24.981Z,55
2018-07-20T08:07:26.993Z,55
2018-07-20T08:08:28.996Z,56
2018-07-20T08:09:30.996Z,55
2018-07-20T08:10:33.397Z,55
2018-07-20T08:11:35.401Z,56
2018-07-20T08:12:37.398Z,55
2018-07-20T08:13:39.413Z,55
2018-07-20T08:14:41.711Z,54
2018-07-20T08:15:44.029Z,54
2018-07-20T08:16:46.330Z,54
2018-07-20T08:17:48.327Z,55
2018-07-20T08:18:50.336Z,55
2018-07-20T08:19:52.344Z,54
2018-07-20T08:20:54.352Z,53
2018-07-20T08:21:56.366Z,52
2018-07-20T08:22:58.553Z,52
2018-07-20T08:24:00.374Z,53
2018-07-20T08:25:02.380Z,54
2018-07-20T08:26:04.377Z,52
2018-07-20T08:27:06.391Z,55
2018-07-20T08:28:08.392Z,53
2018-07-20T08:29:10.405Z,53
2018-07-20T08:30:12.402Z,53
2018-07-20T08:31:14.417Z,54
2018-07-20T08:32:16.421Z,54
2018-07-20T08:33:18.421Z,54
2018-07-20T08:34:20.433Z,53
2018-07-20T08:35:22.812Z,53
2018-07-20T08:36:24.822Z,54
2018-07-20T08:37:26.829Z,53
2018-07-20T08:38:29.123Z,52
2018-07-20T08:39:31.113Z,53
2018-07-20T08:40:33.507Z,54
2018-07-20T08:41:35.514Z,54
2018-07-20T08:42:37.809Z,55
2018-07-20T08:43:39.824Z,53
2018-07-20T08:44:41.822Z,54
2018-07-20T08:45:43.819Z,54
2018-07-20T08:46:45.836Z,54
2018-07-20T08:47:47.833Z,52
2018-07-20T08:48:50.114Z,54
2018-07-20T08:49:52.121Z,53
2018-07-20T08:50:54.405Z,53
2018-07-20T08:51:56.416Z,53
2018-07-20T08:52:58.430Z,53
2018-07-20T08:54:00.797Z,52
2018-07-20T08:55:02.733Z,53
2018-07-20T08:56:04.753Z,50
2018-07-20T08:57:06.752Z,51
2018-07-20T08:58:08.756Z,50
2018-07-20T08:59:10.758Z,50
2018-07-20T09:00:12.775Z,51
2018-07-20T09:01:14.773Z,50
2018-07-20T09:02:17.071Z,50
2018-07-20T09:03:19.068Z,50
2018-07-20T09:04:21.467Z,50
2018-07-20T09:05:23.471Z,50
2018-07-20T09:06:25.477Z,49
2018-07-20T09:07:27.490Z,48
2018-07-20T09:08:29.485Z,48
2018-07-20T09:09:31.502Z,47
2018-07-20T09:10:33.510Z,47
2018-07-20T09:11:35.516Z,47
2018-07-20T09:12:37.800Z,48
2018-07-20T09:13:39.913Z,47
2018-07-20T09:14:41.820Z,47
2018-07-20T09:15:43.823Z,47
2018-07-20T09:16:45.843Z,46
2018-07-20T09:17:47.844Z,46
2018-07-20T09:18:49.845Z,43
2018-07-20T09:19:51.862Z,44
2018-07-20T09:20:53.956Z,44
2018-07-20T09:21:56.632Z,45
2018-07-20T09:22:58.636Z,44
2018-07-20T09:24:00.636Z,44
2018-07-20T09:25:02.932Z,44
2018-07-20T09:26:04.945Z,44
2018-07-20T09:27:06.959Z,44
2018-07-20T09:28:08.951Z,43
2018-07-20T09:29:10.972Z,41
2018-07-20T09:30:13.257Z,42
2018-07-20T09:31:15.653Z,42
2018-07-20T09:32:17.666Z,43
2018-07-20T09:33:19.662Z,41
2018-07-20T09:34:21.675Z,42
2018-07-20T09:35:23.677Z,39
2018-07-20T09:36:25.691Z,41
2018-07-20T09:37:27.698Z,41
2018-07-20T09:38:29.704Z,40
2018-07-20T09:39:31.705Z,40
2018-07-20T09:40:33.717Z,41
2018-07-20T09:41:35.715Z,40
2018-07-20T09:42:37.730Z,40
2018-07-20T09:43:40.024Z,40
2018-07-20T09:44:42.040Z,39
2018-07-20T09:45:44.320Z,39
2018-07-20T09:46:46.339Z,39
2018-07-20T09:47:48.349Z,39
2018-07-20T09:48:50.403Z,39
2018-07-20T09:49:52.380Z,39
2018-07-20T09:50:54.388Z,37
2018-07-20T09:51:56.397Z,37
2018-07-20T09:52:58.422Z,38
2018-07-20T09:54:00.427Z,37
2018-07-20T09:55:02.822Z,38
2018-07-20T09:56:04.826Z,37
2018-07-20T09:57:06.833Z,38
2018-07-20T09:58:08.851Z,39
2018-07-20T09:59:10.870Z,37
2018-07-20T10:00:12.879Z,37
2018-07-20T10:01:14.883Z,37
2018-07-20T10:02:16.907Z,38
2018-07-20T10:03:18.911Z,38
2018-07-20T10:04:21.223Z,38
2018-07-20T10:05:23.240Z,37
2018-07-20T10:06:25.241Z,37
2018-07-20T10:07:27.265Z,37
2018-07-20T10:08:29.274Z,38
2018-07-20T10:09:31.300Z,37
2018-07-20T10:10:33.301Z,37
2018-07-20T10:11:35.322Z,37
2018-07-20T10:12:37.350Z,37
2018-07-20T10:13:39.343Z,37
2018-07-20T10:14:41.366Z,36
2018-07-20T10:15:43.758Z,35
2018-07-20T10:16:45.767Z,35
2018-07-20T10:17:47.776Z,36
2018-07-20T10:18:49.814Z,36
2018-07-20T10:19:52.385Z,36
2018-07-20T10:20:54.714Z,36
2018-07-20T10:21:56.735Z,37
2018-07-20T10:22:58.737Z,37
2018-07-20T10:24:00.757Z,36
2018-07-20T10:25:02.776Z,36
2018-07-20T10:26:04.781Z,36
2018-07-20T10:27:07.083Z,36
2018-07-20T10:28:09.093Z,35
2018-07-20T10:29:11.111Z,35
2018-07-20T10:30:13.131Z,35
2018-07-20T10:31:15.139Z,35
2018-07-20T10:32:17.435Z,37
2018-07-20T10:33:19.442Z,36
2018-07-20T10:34:21.494Z,36
2018-07-20T10:35:23.467Z,36
2018-07-20T10:36:25.484Z,36
2018-07-20T10:37:27.499Z,37
2018-07-20T10:38:30.174Z,37
2018-07-20T10:39:32.198Z,36
2018-07-20T10:40:34.216Z,37
2018-07-20T10:41:36.521Z,36
2018-07-20T10:42:38.527Z,37
2018-07-20T10:43:40.843Z,37
2018-07-20T10:44:42.855Z,38
2018-07-20T10:45:44.865Z,36
2018-07-20T10:46:46.886Z,37
2018-07-20T10:47:49.177Z,38
2018-07-20T10:48:51.584Z,38
2018-07-20T10:49:53.606Z,38
2018-07-20T10:50:55.626Z,37
2018-07-20T10:51:57.667Z,38
2018-07-20T10:52:59.939Z,37
2018-07-20T10:54:02.339Z,36
2018-07-20T10:55:04.367Z,37
2018-07-20T10:56:06.363Z,37
2018-07-20T10:57:08.380Z,37
2018-07-20T10:58:10.402Z,38
2018-07-20T10:59:12.404Z,36
2018-07-20T11:00:14.422Z,36
2018-07-20T11:01:16.741Z,36
2018-07-20T11:02:18.739Z,36
2018-07-20T11:03:20.807Z,36
2018-07-20T11:04:22.818Z,37
2018-07-20T11:05:24.829Z,36
2018-07-20T11:06:27.124Z,37
2018-07-20T11:07:29.154Z,37
2018-07-20T11:08:31.158Z,36
2018-07-20T11:09:33.462Z,35
2018-07-20T11:10:35.476Z,35
2018-07-20T11:11:37.490Z,34
2018-07-20T11:12:39.896Z,36
2018-07-20T11:13:41.923Z,35
2018-07-20T11:14:43.934Z,35
2018-07-20T11:15:45.937Z,35
2018-07-20T11:16:47.960Z,35
2018-07-20T11:17:49.977Z,36
2018-07-20T11:18:51.986Z,36
2018-07-20T11:19:54.008Z,35
2018-07-20T11:20:56.017Z,34
2018-07-20T11:21:58.036Z,35
2018-07-20T11:23:00.060Z,36
2018-07-20T11:24:02.376Z,35
2018-07-20T11:25:04.383Z,34
2018-07-20T11:26:06.403Z,34
2018-07-20T11:27:08.417Z,34
2018-07-20T11:28:10.428Z,35
2018-07-20T11:29:12.454Z,36
2018-07-20T11:30:14.462Z,36
2018-07-20T11:31:16.765Z,35
2018-07-20T11:32:18.767Z,36
2018-07-20T11:33:20.789Z,35
2018-07-20T11:34:22.808Z,34
2018-07-20T11:35:24.823Z,34
2018-07-20T11:36:26.846Z,35
2018-07-20T11:37:28.888Z,36
2018-07-20T11:38:31.256Z,34
2018-07-20T11:39:33.271Z,34
2018-07-20T11:40:35.301Z,35
2018-07-20T11:41:37.584Z,36
2018-07-20T11:42:39.607Z,35
2018-07-20T11:43:41.621Z,36
2018-07-20T11:44:43.637Z,35
2018-07-20T11:45:45.667Z,36
2018-07-20T11:46:47.671Z,36
2018-07-20T11:47:49.690Z,35
2018-07-20T11:48:51.703Z,36
2018-07-20T11:49:53.727Z,34
2018-07-20T11:50:55.740Z,33
2018-07-20T11:51:57.753Z,34
2018-07-20T11:53:00.057Z,34
2018-07-20T11:54:02.070Z,34
2018-07-20T11:55:04.090Z,34
2018-07-20T11:56:06.111Z,34
2018-07-20T11:57:08.135Z,35
2018-07-20T11:58:10.700Z,35
2018-07-20T11:59:12.722Z,36
2018-07-20T12:00:14.740Z,35
2018-07-20T12:01:17.405Z,35
2018-07-20T12:02:19.796Z,36
2018-07-20T12:03:21.804Z,35
2018-07-20T12:04:23.816Z,35
2018-07-20T12:05:25.843Z,36
2018-07-20T12:06:27.853Z,34
2018-07-20T12:07:29.868Z,34
2018-07-20T12:08:31.875Z,34
2018-07-20T12:09:34.282Z,35
2018-07-20T12:10:36.294Z,35
2018-07-20T12:11:38.304Z,34
2018-07-20T12:12:40.316Z,34
2018-07-20T12:13:42.347Z,35
2018-07-20T12:14:44.356Z,34
2018-07-20T12:15:46.378Z,34
2018-07-20T12:16:48.443Z,34
2018-07-20T12:17:50.713Z,35
2018-07-20T12:18:53.037Z,35
2018-07-20T12:19:55.304Z,36
2018-07-20T12:20:57.324Z,35
2018-07-20T12:21:59.333Z,36
2018-07-20T12:23:01.655Z,36
2018-07-20T12:24:03.667Z,36
2018-07-20T12:25:06.353Z,36
2018-07-20T12:26:08.660Z,36
2018-07-20T12:27:10.668Z,37
2018-07-20T12:28:12.725Z,36
2018-07-20T12:29:15.056Z,36
2018-07-20T12:30:17.077Z,36
2018-07-20T12:31:19.365Z,35
2018-07-20T12:32:21.383Z,35
2018-07-20T12:33:23.400Z,36
2018-07-20T12:34:25.439Z,36
2018-07-20T12:35:27.732Z,35
2018-07-20T12:36:29.744Z,33
2018-07-20T12:37:31.755Z,33
2018-07-20T12:38:33.779Z,34
2018-07-20T12:39:35.790Z,34
2018-07-20T12:40:37.801Z,34
2018-07-20T12:41:40.097Z,34
2018-07-20T12:42:42.187Z,33
2018-07-20T12:43:44.132Z,34
2018-07-20T12:44:46.154Z,33
2018-07-20T12:45:48.459Z,34
2018-07-20T12:46:50.462Z,34
2018-07-20T12:47:52.491Z,33
2018-07-20T12:48:54.501Z,35
2018-07-20T12:49:56.519Z,34
2018-07-20T12:50:58.540Z,33
2018-07-20T12:52:00.547Z,35
2018-07-20T12:53:03.233Z,34
2018-07-20T12:54:05.540Z,35
2018-07-20T12:55:07.568Z,34
2018-07-20T12:56:09.580Z,35
2018-07-20T12:57:11.875Z,33
2018-07-20T12:58:13.895Z,34
2018-07-20T12:59:15.907Z,33
2018-07-20T13:00:17.935Z,33
2018-07-20T13:01:19.945Z,34
2018-07-20T13:02:21.959Z,33
2018-07-20T13:03:23.969Z,34
2018-07-20T13:04:26.380Z,33
2018-07-20T13:05:28.390Z,33
2018-07-20T13:06:30.407Z,31
2018-07-20T13:07:32.429Z,32
2018-07-20T13:08:34.433Z,32
2018-07-20T13:09:36.457Z,32
2018-07-20T13:10:38.480Z,33
2018-07-20T13:11:40.487Z,32
2018-07-20T13:12:42.508Z,33
2018-07-20T13:13:44.535Z,32
2018-07-20T13:14:46.552Z,31
2018-07-20T13:15:48.573Z,32
2018-07-20T13:16:50.592Z,31
2018-07-20T13:17:52.640Z,31
2018-07-20T13:18:55.002Z,32
2018-07-20T13:19:57.309Z,31
2018-07-20T13:20:59.339Z,31
2018-07-20T13:22:01.363Z,30
2018-07-20T13:23:03.395Z,31
2018-07-20T13:24:05.706Z,32
2018-07-20T13:25:08.102Z,32
2018-07-20T13:26:10.127Z,31
2018-07-20T13:27:12.160Z,32
2018-07-20T13:28:14.479Z,32
2018-07-20T13:29:16.493Z,32
2018-07-20T13:30:18.511Z,32
2018-07-20T13:31:20.535Z,31
2018-07-20T13:32:22.549Z,30
2018-07-20T13:33:24.856Z,31
2018-07-20T13:34:27.752Z,31
2018-07-20T13:35:30.153Z,31
2018-07-20T13:36:32.179Z,30
2018-07-20T13:37:34.495Z,31
2018-07-20T13:38:36.512Z,31
2018-07-20T13:39:38.548Z,31
2018-07-20T13:40:40.921Z,31
2018-07-20T13:41:42.931Z,31
2018-07-20T13:42:45.081Z,30
2018-07-20T13:43:47.116Z,31
2018-07-20T13:44:49.404Z,32
2018-07-20T13:45:51.820Z,31
2018-07-20T13:46:54.189Z,31
2018-07-20T13:47:56.232Z,30
2018-07-20T13:48:58.259Z,32
2018-07-20T13:50:00.553Z,32
2018-07-20T13:51:02.565Z,32
2018-07-20T13:52:04.583Z,31
2018-07-20T13:53:07.526Z,33
2018-07-20T13:54:09.524Z,33
2018-07-20T13:55:11.550Z,32
2018-07-20T13:56:13.572Z,32
2018-07-20T13:57:15.592Z,31
2018-07-20T13:58:17.624Z,31
2018-07-20T13:59:19.638Z,31
2018-07-20T14:00:21.668Z,31
2018-07-20T14:01:23.680Z,31
2018-07-20T14:02:25.705Z,31
2018-07-20T14:03:27.732Z,32
2018-07-20T14:04:29.755Z,33
2018-07-20T14:05:32.073Z,32
2018-07-20T14:06:34.118Z,32
2018-07-20T14:07:36.135Z,32
2018-07-20T14:08:38.436Z,32
2018-07-20T14:09:40.454Z,33
2018-07-20T14:10:42.485Z,31
2018-07-20T14:11:44.508Z,31
2018-07-20T14:12:46.528Z,31
2018-07-20T14:13:48.558Z,31
2018-07-20T14:14:50.572Z,30
2018-07-20T14:15:52.603Z,31
2018-07-20T14:16:54.630Z,30
2018-07-20T14:17:56.656Z,32
2018-07-20T14:18:58.666Z,31
2018-07-20T14:20:00.982Z,32
2018-07-20T14:21:03.007Z,32
2018-07-20T14:22:05.421Z,32
2018-07-20T14:23:07.723Z,31
2018-07-20T14:24:09.743Z,31
2018-07-20T14:25:11.758Z,31
2018-07-20T14:26:14.238Z,31
2018-07-20T14:27:16.215Z,31
2018-07-20T14:28:18.252Z,31
2018-07-20T14:29:20.272Z,31
2018-07-20T14:30:22.287Z,31
2018-07-20T14:31:25.506Z,31
2018-07-20T14:32:27.458Z,30
2018-07-20T14:33:29.490Z,31
2018-07-20T14:34:31.782Z,31
2018-07-20T14:35:33.817Z,30
2018-07-20T14:36:36.109Z,30
2018-07-20T14:37:38.126Z,31
2018-07-20T14:38:40.152Z,31
2018-07-20T14:39:42.448Z,31
2018-07-20T14:40:44.850Z,31
2018-07-20T14:41:46.865Z,31
2018-07-20T14:42:48.882Z,31
2018-07-20T14:43:50.914Z,30
2018-07-20T14:44:52.928Z,31
2018-07-20T14:45:54.950Z,31